Flagstaff, AZ (86001)

11:12 AM MST on April 27, 2017 (GMT -0700)
Lowell Observatory | | Change Station
Active Advisory: Wind Advisory

Elev 7247 ft 35.20 °N, 111.67 °W | Updated 12 seconds ago

Clear
Clear
57.4 °F
Feels Like 57.4 °F
N
16.1
Wind Variable Wind from West
Gusts 22.0 mph

Today
High -- | Low -- °F
--% Chance of Precip.
Yesterday
High -- | Low -- °F
Precip. -- in
Pressure 29.62 in
Visibility 10.0 miles
Clouds Few 4000 ft
Dew Point 28 °F
Humidity 32%
Rainfall 0.00 in
Snow Depth Not available.
5:39 AM 7:09 PM
New Moon, 2% visible
METAR KFLG 271757Z 27016G27KT 250V320 10SM FEW040 15/M04 A2986 RMK AO2 PK WND 26028/1734 SLP030 T01501044 10156 20083 50001
Pressure 29.62 in
Visibility 10.0 miles
Clouds Few 4000 ft
Dew Point 28 °F
Humidity 32%
Rainfall 0.00 in
Snow Depth Not available.
5:39 AM 7:09 PM
New Moon, 2% visible
METAR KFLG 271757Z 27016G27KT 250V320 10SM FEW040 15/M04 A2986 RMK AO2 PK WND 26028/1734 SLP030 T01501044 10156 20083 50001

Get Your Daily Forecast Email!

Thanks for signing up!

Be on the lookout for a verification email in your inbox.

You'll start receiving severe weather alerts in your inbox..

×

10-Day Weather Forecast

Almanac

Astronomy

Apr. 27, 2017 Rise Set
Actual Time
Civil Twilight
Nautical Twilight
Astronomical Twilight
Moon
Length of Visible Light
Length of Day
Tomorrow will be .
, % of the Moon is Illuminated

Today's Extremes

State Highs State Lows

Community

WunderPhotos

WunderBlog® & News

Nearby

Air Quality

  Air Quality AQ Index Pollutant
Not available.

Snow Depth

Station Depth Elevation

Earthquake Activity

City Distance Mag. Time & Date
Minimum magnitude displayed is 2.5.

Coastal Water Temperatures

Place Temperature

Stations

Nearby Weather Stations

Station Location Temp. Windchill Dew Point Humidity Wind Precip. Elev Updated Type
                   

Watches & Warnings

Wind Advisory
Issued: 3:32 AM MDT Apr. 27, 2017 – National Weather Service

... Wind Advisory in effect from 10 am this morning to 7 PM MST
this evening...

The National Weather Service in Flagstaff has issued a Wind
Advisory, which is in effect from 10 am this morning to 7 PM MST
this evening.

* Timing... wind speeds will increase through the morning hours with
the strongest winds from late morning through early evening.

* Winds... west to southwest 20 to 30 mph with gusts 40 to 50 mph.

* Impacts... winds this strong can make driving difficult,
especially for high profile vehicles. North south oriented roads
such as Highway 191 through Apache County will be most affected
by Crosswinds.

Precautionary/preparedness actions...

A Wind Advisory means that sustained winds of 30 to 39 mph... or
gusts from 40 to 57 mph... are expected. Winds this strong can
make driving difficult... especially for high profile vehicles.
Consider securing loose belongings on your property. Additional
weather information is on the web at www.Weather.Gov/Flagstaff.